createdAt,value
2017-12-16T00:00:45.836Z,1.80
2017-12-16T00:03:15.239Z,1.80
2017-12-16T00:05:44.415Z,1.80
2017-12-16T00:08:12.848Z,1.80
2017-12-16T00:10:41.503Z,1.80
2017-12-16T00:13:10.705Z,1.70
2017-12-16T00:15:39.426Z,1.70
2017-12-16T00:18:08.202Z,1.70
2017-12-16T00:20:36.728Z,1.60
2017-12-16T00:23:05.180Z,1.60
2017-12-16T00:25:33.816Z,1.60
2017-12-16T00:28:03.004Z,1.50
2017-12-16T00:30:32.210Z,1.50
2017-12-16T00:33:01.631Z,1.60
2017-12-16T00:35:30.035Z,1.50
2017-12-16T00:37:58.448Z,1.50
2017-12-16T00:40:27.159Z,1.50
2017-12-16T00:42:55.580Z,1.50
2017-12-16T00:45:24.119Z,1.50
2017-12-16T00:47:53.500Z,1.50
2017-12-16T00:50:21.920Z,1.50
2017-12-16T00:52:50.384Z,1.50
2017-12-16T00:55:19.008Z,1.60
2017-12-16T00:57:47.451Z,1.60
2017-12-16T01:00:15.885Z,1.60
2017-12-16T01:02:44.513Z,1.80
2017-12-16T01:05:13.751Z,1.80
2017-12-16T01:07:42.140Z,1.80
2017-12-16T01:10:10.659Z,1.70
2017-12-16T01:12:39.839Z,1.70
2017-12-16T01:15:08.256Z,1.70
2017-12-16T01:17:37.129Z,1.70
2017-12-16T01:20:06.304Z,1.80
2017-12-16T01:22:34.715Z,1.70
2017-12-16T01:25:04.211Z,1.70
2017-12-16T01:27:33.623Z,1.70
2017-12-16T01:30:03.191Z,1.70
2017-12-16T01:32:31.633Z,1.70
2017-12-16T01:38:16.990Z,1.80
2017-12-16T01:40:45.436Z,1.70
2017-12-16T01:43:13.872Z,1.60
2017-12-16T01:45:42.901Z,1.50
2017-12-16T01:48:11.340Z,1.40
2017-12-16T01:50:39.787Z,1.30
2017-12-16T01:53:08.600Z,1.30
2017-12-16T01:55:37.760Z,1.40
2017-12-16T01:58:06.204Z,1.40
2017-12-16T02:00:34.875Z,1.30
2017-12-16T02:03:03.298Z,1.20
2017-12-16T02:05:32.039Z,1.20
2017-12-16T02:08:00.594Z,1.20
2017-12-16T02:10:29.050Z,1.20
2017-12-16T02:12:57.445Z,1.20
2017-12-16T02:15:25.942Z,1.20
2017-12-16T02:17:54.424Z,1.30
2017-12-16T02:20:23.653Z,1.30
2017-12-16T02:22:52.454Z,1.30
2017-12-16T02:25:20.930Z,1.30
2017-12-16T02:27:49.433Z,1.30
2017-12-16T02:30:18.110Z,1.20
2017-12-16T02:32:46.579Z,1.40
2017-12-16T02:35:15.009Z,1.40
2017-12-16T02:37:43.765Z,1.30
2017-12-16T02:40:12.214Z,1.30
2017-12-16T02:42:41.451Z,1.30
2017-12-16T02:45:10.060Z,1.30
2017-12-16T02:47:38.643Z,1.40
2017-12-16T02:50:07.085Z,1.20
2017-12-16T02:52:36.496Z,1.30
2017-12-16T02:55:04.982Z,1.30
2017-12-16T02:57:33.486Z,1.20
2017-12-16T03:00:02.489Z,1.30
2017-12-16T03:02:30.901Z,1.20
2017-12-16T03:04:59.320Z,1.20
2017-12-16T03:07:28.099Z,1.30
2017-12-16T03:09:56.549Z,1.30
2017-12-16T03:12:24.982Z,1.20
2017-12-16T03:14:53.695Z,1.20
2017-12-16T03:17:22.153Z,1.20
2017-12-16T03:19:50.639Z,1.30
2017-12-16T03:22:19.549Z,1.20
2017-12-16T03:24:48.754Z,1.20
2017-12-16T03:27:18.034Z,1.20
2017-12-16T03:29:46.568Z,1.10
2017-12-16T03:32:15.060Z,1.10
2017-12-16T03:34:43.500Z,1.10
2017-12-16T03:37:12.927Z,1.00
2017-12-16T03:39:41.376Z,1.00
2017-12-16T03:42:10.580Z,1.00
2017-12-16T03:44:39.353Z,1.00
2017-12-16T03:47:07.799Z,1.00
2017-12-16T03:49:36.829Z,1.00
2017-12-16T03:52:06.357Z,1.00
2017-12-16T03:54:34.794Z,1.00
2017-12-16T03:57:03.258Z,0.90
2017-12-16T03:59:31.871Z,0.90
2017-12-16T04:02:01.095Z,1.00
2017-12-16T04:04:30.295Z,1.00
2017-12-16T04:06:58.878Z,1.00
2017-12-16T04:09:27.696Z,0.90
2017-12-16T04:11:56.167Z,1.00
2017-12-16T04:14:24.722Z,1.00
2017-12-16T04:16:53.226Z,1.00
2017-12-16T04:19:21.648Z,1.00
2017-12-16T04:21:50.579Z,1.10
2017-12-16T04:24:19.825Z,1.10
2017-12-16T04:26:48.258Z,1.10
2017-12-16T04:29:17.883Z,1.20
2017-12-16T04:31:46.330Z,1.20
2017-12-16T04:34:15.627Z,1.30
2017-12-16T04:36:44.204Z,1.30
2017-12-16T04:39:12.645Z,1.30
2017-12-16T04:41:41.056Z,1.30
2017-12-16T04:44:09.820Z,1.40
2017-12-16T04:46:38.338Z,1.40
2017-12-16T04:49:06.770Z,1.30
2017-12-16T04:51:35.895Z,1.40
2017-12-16T04:54:04.343Z,1.40
2017-12-16T04:56:32.789Z,1.30
2017-12-16T04:59:02.078Z,1.30
2017-12-16T05:01:31.308Z,1.40
2017-12-16T05:03:59.721Z,1.30
2017-12-16T05:06:28.356Z,1.30
2017-12-16T05:08:57.569Z,1.30
2017-12-16T05:11:26.182Z,1.30
2017-12-16T05:13:54.796Z,1.30
2017-12-16T05:16:23.263Z,1.30
2017-12-16T05:18:51.775Z,1.20
2017-12-16T05:21:21.153Z,1.30
2017-12-16T05:23:49.639Z,1.30
2017-12-16T05:26:18.878Z,1.30
2017-12-16T05:28:47.532Z,1.30
2017-12-16T05:31:16.757Z,1.30
2017-12-16T05:33:45.213Z,1.30
2017-12-16T05:36:14.240Z,1.30
2017-12-16T05:38:42.681Z,1.20
2017-12-16T05:41:11.148Z,1.30
2017-12-16T05:43:39.707Z,1.30
2017-12-16T05:46:08.179Z,1.30
2017-12-16T05:48:36.647Z,1.30
2017-12-16T05:51:05.106Z,1.40
2017-12-16T05:53:33.770Z,1.40
2017-12-16T05:56:02.234Z,1.40
2017-12-16T05:58:30.850Z,1.30
2017-12-16T06:01:00.032Z,1.30
2017-12-16T06:03:28.517Z,1.20
2017-12-16T06:05:56.992Z,1.30
2017-12-16T06:08:25.428Z,1.30
2017-12-16T06:10:53.885Z,1.20
2017-12-16T06:13:22.835Z,1.20
2017-12-16T06:15:51.293Z,1.20
2017-12-16T06:18:19.718Z,1.30
2017-12-16T06:20:48.202Z,1.30
2017-12-16T06:23:16.670Z,1.40
2017-12-16T06:25:45.153Z,1.30
2017-12-16T06:28:14.553Z,1.30
2017-12-16T06:30:43.005Z,1.30
2017-12-16T06:33:11.448Z,1.30
2017-12-16T06:35:40.304Z,1.30
2017-12-16T06:38:08.987Z,1.20
2017-12-16T06:40:38.254Z,1.30
2017-12-16T06:43:06.883Z,1.30
2017-12-16T06:45:36.117Z,1.30
2017-12-16T06:48:04.602Z,1.20
2017-12-16T06:50:33.085Z,1.20
2017-12-16T06:53:01.540Z,1.30
2017-12-16T06:55:31.147Z,1.30
2017-12-16T06:58:00.498Z,1.30
2017-12-16T07:00:28.943Z,1.30
2017-12-16T07:02:57.440Z,1.30
2017-12-16T07:05:26.093Z,1.30
2017-12-16T07:07:54.559Z,1.30
2017-12-16T07:10:23.017Z,1.40
2017-12-16T07:12:51.626Z,1.40
2017-12-16T07:15:21.298Z,1.40
2017-12-16T07:17:49.742Z,1.40
2017-12-16T07:20:18.408Z,1.40
2017-12-16T07:22:46.932Z,1.30
2017-12-16T07:25:15.394Z,1.30
2017-12-16T07:27:44.058Z,1.40
2017-12-16T07:30:13.276Z,1.30
2017-12-16T07:32:41.731Z,1.30
2017-12-16T07:35:11.128Z,1.30
2017-12-16T07:37:40.288Z,1.30
2017-12-16T07:40:09.106Z,1.30
2017-12-16T07:42:37.919Z,1.20
2017-12-16T07:45:07.102Z,1.40
2017-12-16T07:47:36.258Z,1.40
2017-12-16T07:50:04.727Z,1.30
2017-12-16T07:52:33.977Z,1.40
2017-12-16T07:55:02.406Z,1.40
2017-12-16T07:57:31.280Z,1.50
2017-12-16T07:59:59.687Z,1.50
2017-12-16T08:02:28.176Z,1.60
2017-12-16T08:04:56.699Z,1.60
2017-12-16T08:07:25.853Z,1.60
2017-12-16T08:09:54.277Z,1.60
2017-12-16T08:12:23.514Z,1.70
2017-12-16T08:14:51.923Z,1.70
2017-12-16T08:17:20.441Z,1.70
2017-12-16T08:19:49.820Z,1.70
2017-12-16T08:22:19.016Z,1.70
2017-12-16T08:24:47.460Z,1.70
2017-12-16T08:27:15.906Z,1.70
2017-12-16T08:29:45.102Z,1.80
2017-12-16T08:32:13.574Z,1.80
2017-12-16T08:34:42.976Z,2.00
2017-12-16T08:37:12.136Z,2.00
2017-12-16T08:39:40.544Z,1.90
2017-12-16T08:42:10.133Z,2.00
2017-12-16T08:44:38.544Z,1.90
2017-12-16T08:47:08.012Z,1.90
2017-12-16T08:49:36.492Z,1.90
2017-12-16T08:52:04.876Z,1.90
2017-12-16T08:54:33.308Z,1.90
2017-12-16T08:57:01.877Z,1.90
2017-12-16T08:59:30.744Z,1.90
2017-12-16T09:01:59.232Z,1.90
2017-12-16T09:04:28.647Z,2.00
2017-12-16T09:06:57.836Z,2.00
2017-12-16T09:09:27.003Z,2.10
2017-12-16T09:11:55.467Z,2.10
2017-12-16T09:14:23.865Z,2.10
2017-12-16T09:16:52.276Z,2.10
2017-12-16T09:19:21.786Z,2.10
2017-12-16T09:21:50.962Z,2.20
2017-12-16T09:24:19.353Z,2.20
2017-12-16T09:26:48.670Z,2.20
2017-12-16T09:29:17.071Z,2.10
2017-12-16T09:31:45.499Z,2.20
2017-12-16T09:34:14.718Z,2.20
2017-12-16T09:36:43.901Z,2.20
2017-12-16T09:39:13.059Z,2.30
2017-12-16T09:41:41.643Z,2.30
2017-12-16T09:44:10.268Z,2.40
2017-12-16T09:46:39.419Z,2.50
2017-12-16T09:49:07.861Z,2.50
2017-12-16T09:51:37.062Z,2.40
2017-12-16T09:54:05.461Z,2.40
2017-12-16T09:56:34.332Z,2.40
2017-12-16T09:59:02.728Z,2.40
2017-12-16T10:01:31.615Z,2.40
2017-12-16T10:04:00.125Z,2.40
2017-12-16T10:06:28.620Z,2.60
2017-12-16T10:08:57.067Z,2.80
2017-12-16T10:11:25.614Z,3.00
2017-12-16T10:13:54.015Z,3.00
2017-12-16T10:16:22.422Z,3.00
2017-12-16T10:18:51.883Z,2.80
2017-12-16T10:21:20.374Z,2.90
2017-12-16T10:23:50.138Z,2.90
2017-12-16T10:26:18.714Z,3.10
2017-12-16T10:28:47.108Z,2.90
2017-12-16T10:31:15.528Z,3.00
2017-12-16T10:33:44.069Z,3.10
2017-12-16T10:36:12.480Z,3.10
2017-12-16T10:38:41.644Z,3.00
2017-12-16T10:41:10.225Z,3.00
2017-12-16T10:43:39.449Z,3.00
2017-12-16T10:46:08.716Z,3.40
2017-12-16T10:48:37.368Z,3.40
2017-12-16T10:51:05.888Z,3.30
2017-12-16T10:53:34.322Z,3.40
2017-12-16T10:56:03.002Z,3.40
2017-12-16T10:58:31.439Z,3.50
2017-12-16T11:01:00.034Z,3.70
2017-12-16T11:03:29.267Z,4.30
2017-12-16T11:05:57.727Z,4.70
2017-12-16T11:08:26.907Z,4.90
2017-12-16T11:10:55.482Z,4.90
2017-12-16T11:13:24.341Z,5.40
2017-12-16T11:15:52.781Z,5.80
2017-12-16T11:18:22.070Z,5.30
2017-12-16T11:20:51.261Z,4.90
2017-12-16T11:23:20.552Z,4.80
2017-12-16T11:25:49.276Z,4.80
2017-12-16T11:28:17.702Z,4.60
2017-12-16T11:30:46.916Z,4.70
2017-12-16T11:33:15.392Z,4.70
2017-12-16T11:35:43.872Z,4.50
2017-12-16T11:38:12.305Z,4.50
2017-12-16T11:40:40.834Z,4.60
2017-12-16T11:43:09.222Z,4.60
2017-12-16T11:45:37.650Z,4.70
2017-12-16T11:48:07.090Z,5.50
2017-12-16T11:50:35.495Z,6.40
2017-12-16T11:53:04.656Z,6.40
2017-12-16T11:55:33.241Z,6.40
2017-12-16T11:58:02.613Z,5.90
2017-12-16T12:00:31.042Z,5.80
2017-12-16T12:02:59.655Z,5.80
2017-12-16T12:05:28.353Z,5.80
2017-12-16T12:07:56.744Z,6.00
2017-12-16T12:10:25.200Z,5.70
2017-12-16T12:12:53.653Z,5.50
2017-12-16T12:15:22.131Z,5.20
2017-12-16T12:17:51.407Z,5.10
2017-12-16T12:20:19.792Z,5.20
2017-12-16T12:22:49.262Z,5.20
2017-12-16T12:25:18.662Z,5.00
2017-12-16T12:27:47.142Z,5.00
2017-12-16T12:30:15.546Z,4.90
2017-12-16T12:32:44.473Z,4.50
2017-12-16T12:35:12.877Z,3.90
2017-12-16T12:37:42.887Z,3.60
2017-12-16T12:40:12.385Z,3.70
2017-12-16T12:42:40.839Z,3.70
2017-12-16T12:45:09.261Z,3.70
2017-12-16T12:47:38.541Z,3.80
2017-12-16T12:50:07.226Z,3.80
2017-12-16T12:52:35.664Z,3.80
2017-12-16T12:55:04.298Z,3.70
2017-12-16T12:57:33.528Z,3.80
2017-12-16T13:00:01.999Z,3.80
2017-12-16T13:02:30.542Z,3.80
2017-12-16T13:04:58.967Z,3.90
2017-12-16T13:07:27.740Z,3.90
2017-12-16T13:09:57.096Z,3.80
2017-12-16T13:12:25.482Z,3.90
2017-12-16T13:14:53.888Z,3.80
2017-12-16T13:17:23.506Z,3.90
2017-12-16T13:19:52.311Z,3.90
2017-12-16T13:22:20.780Z,4.00
2017-12-16T13:24:49.256Z,4.10
2017-12-16T13:27:18.823Z,4.10
2017-12-16T13:29:47.273Z,4.10
2017-12-16T13:32:15.730Z,4.10
2017-12-16T13:34:44.147Z,4.00
2017-12-16T13:37:12.585Z,3.90
2017-12-16T13:39:41.967Z,3.90
2017-12-16T13:42:11.136Z,3.80
2017-12-16T13:44:39.555Z,3.80
2017-12-16T13:47:08.856Z,3.90
2017-12-16T13:49:38.066Z,4.00
2017-12-16T13:52:06.741Z,4.00
2017-12-16T13:54:36.176Z,4.00
2017-12-16T13:57:04.624Z,3.90
2017-12-16T13:59:33.793Z,4.10
2017-12-16T14:02:02.632Z,4.10
2017-12-16T14:04:31.148Z,4.10
2017-12-16T14:06:59.530Z,4.20
2017-12-16T14:09:28.733Z,4.10
2017-12-16T14:11:57.108Z,4.00
2017-12-16T14:14:25.532Z,4.00
2017-12-16T14:16:55.013Z,4.00
2017-12-16T14:19:23.396Z,3.90
2017-12-16T14:21:51.896Z,3.90
2017-12-16T14:24:20.379Z,3.80
2017-12-16T14:26:48.800Z,3.80
2017-12-16T14:29:17.386Z,3.80
2017-12-16T14:31:45.820Z,3.80
2017-12-16T14:34:14.223Z,3.80
2017-12-16T14:36:42.649Z,3.80
2017-12-16T14:39:11.444Z,3.70
2017-12-16T14:41:39.919Z,3.80
2017-12-16T14:44:08.358Z,3.70
2017-12-16T14:46:37.772Z,3.60
2017-12-16T14:49:06.162Z,3.60
2017-12-16T14:51:34.603Z,3.60
2017-12-16T14:54:03.709Z,3.60
2017-12-16T14:56:32.862Z,3.60
2017-12-16T14:59:01.266Z,3.60
2017-12-16T15:01:30.658Z,3.50
2017-12-16T15:03:59.120Z,3.40
2017-12-16T15:06:27.545Z,3.30
2017-12-16T15:08:56.044Z,3.30
2017-12-16T15:11:24.962Z,3.20
2017-12-16T15:13:54.008Z,3.20
2017-12-16T15:16:22.516Z,3.20
2017-12-16T15:18:50.979Z,3.20
2017-12-16T15:21:19.380Z,3.20
2017-12-16T15:23:47.929Z,3.20
2017-12-16T15:26:16.354Z,3.20
2017-12-16T15:28:44.758Z,3.20
2017-12-16T15:31:14.624Z,3.20
2017-12-16T15:33:43.009Z,3.20
2017-12-16T15:36:11.403Z,3.20
2017-12-16T15:38:39.972Z,3.20
2017-12-16T15:41:09.219Z,3.20
2017-12-16T15:43:38.465Z,3.10
2017-12-16T15:46:07.022Z,3.10
2017-12-16T15:48:36.418Z,3.10
2017-12-16T15:51:04.827Z,3.10
2017-12-16T15:53:33.422Z,3.10
2017-12-16T15:56:02.845Z,3.10
2017-12-16T15:58:31.279Z,3.10
2017-12-16T16:01:01.060Z,3.10
2017-12-16T16:03:30.252Z,3.10
2017-12-16T16:05:59.423Z,3.00
2017-12-16T16:08:28.691Z,3.10
2017-12-16T16:10:57.136Z,3.00
2017-12-16T16:13:26.760Z,3.00
2017-12-16T16:15:55.289Z,3.10
2017-12-16T16:18:24.517Z,3.10
2017-12-16T16:20:52.929Z,3.10
2017-12-16T16:23:21.540Z,3.00
2017-12-16T16:25:50.450Z,3.00
2017-12-16T16:28:18.855Z,3.00
2017-12-16T16:30:48.211Z,3.00
2017-12-16T16:33:17.580Z,3.00
2017-12-16T16:35:46.027Z,3.00
2017-12-16T16:38:14.568Z,3.00
2017-12-16T16:40:43.009Z,3.00
2017-12-16T16:43:13.031Z,3.00
2017-12-16T16:45:42.276Z,3.00
2017-12-16T16:48:11.314Z,3.00
2017-12-16T16:50:40.495Z,3.00
2017-12-16T16:53:08.965Z,3.00
2017-12-16T16:55:37.412Z,3.00
2017-12-16T16:58:06.036Z,3.00
2017-12-16T17:00:34.856Z,3.00
2017-12-16T17:03:04.005Z,3.10
2017-12-16T17:05:32.448Z,3.10
2017-12-16T17:08:00.908Z,3.10
2017-12-16T17:10:30.107Z,3.10
2017-12-16T17:12:59.274Z,3.10
2017-12-16T17:15:28.272Z,3.10
2017-12-16T17:17:56.669Z,3.10
2017-12-16T17:20:25.827Z,3.00
2017-12-16T17:22:54.378Z,3.00
2017-12-16T17:25:22.794Z,3.00
2017-12-16T17:27:51.258Z,3.00
2017-12-16T17:30:19.861Z,3.00
2017-12-16T17:32:48.341Z,2.90
2017-12-16T17:35:16.857Z,2.90
2017-12-16T17:37:46.168Z,2.90
2017-12-16T17:40:15.376Z,2.80
2017-12-16T17:42:43.812Z,2.90
2017-12-16T17:45:13.175Z,2.90
2017-12-16T17:47:41.655Z,2.90
2017-12-16T17:50:10.060Z,2.80
2017-12-16T17:52:38.664Z,2.80
2017-12-16T17:55:07.060Z,2.80
2017-12-16T17:57:36.263Z,2.90
2017-12-16T18:00:05.550Z,2.80
2017-12-16T18:02:34.748Z,2.80
2017-12-16T18:05:04.022Z,2.80
2017-12-16T18:07:32.917Z,2.80
2017-12-16T18:10:01.346Z,2.80
2017-12-16T18:12:29.833Z,2.80
2017-12-16T18:14:58.421Z,2.80
2017-12-16T18:17:27.378Z,2.70
2017-12-16T18:19:56.565Z,2.50
2017-12-16T18:22:25.144Z,2.50
2017-12-16T18:24:53.558Z,2.50
2017-12-16T18:27:22.719Z,2.40
2017-12-16T18:29:51.252Z,2.40
2017-12-16T18:32:19.647Z,2.40
2017-12-16T18:34:48.081Z,2.40
2017-12-16T18:37:17.355Z,2.50
2017-12-16T18:39:45.796Z,2.50
2017-12-16T18:42:14.186Z,2.50
2017-12-16T18:44:42.811Z,2.60
2017-12-16T18:47:11.249Z,2.60
2017-12-16T18:49:39.683Z,2.60
2017-12-16T18:52:09.048Z,2.60
2017-12-16T18:54:37.497Z,2.60
2017-12-16T18:57:05.920Z,2.60
2017-12-16T18:59:34.613Z,2.50
2017-12-16T19:02:03.359Z,2.70
2017-12-16T19:04:31.763Z,2.70
2017-12-16T19:07:00.578Z,2.70
2017-12-16T19:09:28.996Z,2.70
2017-12-16T19:11:57.442Z,2.70
2017-12-16T19:14:26.713Z,2.70
2017-12-16T19:16:55.177Z,2.70
2017-12-16T19:19:24.033Z,2.70
2017-12-16T19:21:52.538Z,2.70
2017-12-16T19:24:20.943Z,2.70
2017-12-16T19:26:49.390Z,2.70
2017-12-16T19:29:17.829Z,2.60
2017-12-16T19:31:46.207Z,2.60
2017-12-16T19:34:14.619Z,2.50
2017-12-16T19:36:43.583Z,2.50
2017-12-16T19:39:12.803Z,2.40
2017-12-16T19:41:41.962Z,2.30
2017-12-16T19:44:10.756Z,2.30
2017-12-16T19:46:39.146Z,2.30
2017-12-16T19:49:07.542Z,2.20
2017-12-16T19:51:37.125Z,2.00
2017-12-16T19:54:05.509Z,2.00
2017-12-16T19:56:34.683Z,1.90
2017-12-16T19:59:03.260Z,1.80
2017-12-16T20:01:32.416Z,1.70
2017-12-16T20:04:00.857Z,1.60
2017-12-16T20:06:29.302Z,1.60
2017-12-16T20:08:57.681Z,1.60
2017-12-16T20:11:26.091Z,1.70
2017-12-16T20:13:54.789Z,1.70
2017-12-16T20:16:23.229Z,1.70
2017-12-16T20:18:52.424Z,1.60
2017-12-16T20:21:21.563Z,1.60
2017-12-16T20:23:50.759Z,1.50
2017-12-16T20:26:19.198Z,1.50
2017-12-16T20:28:47.756Z,1.50
2017-12-16T20:31:16.177Z,1.60
2017-12-16T20:33:44.655Z,1.60
2017-12-16T20:36:13.570Z,1.60
2017-12-16T20:38:41.961Z,1.70
2017-12-16T20:41:11.441Z,1.70
2017-12-16T20:43:39.982Z,1.70
2017-12-16T20:46:09.185Z,1.70
2017-12-16T20:48:37.612Z,1.70
2017-12-16T20:51:06.346Z,1.70
2017-12-16T20:53:35.613Z,1.70
2017-12-16T20:56:04.828Z,1.70
2017-12-16T20:58:33.539Z,1.70
2017-12-16T21:01:01.927Z,1.70
2017-12-16T21:03:30.404Z,1.70
2017-12-16T21:05:59.041Z,1.70
2017-12-16T21:08:28.253Z,1.70
2017-12-16T21:10:56.652Z,1.70
2017-12-16T21:13:25.193Z,1.60
2017-12-16T21:15:54.353Z,1.60
2017-12-16T21:18:22.772Z,1.60
2017-12-16T21:20:51.235Z,1.60
2017-12-16T21:23:20.008Z,1.70
2017-12-16T21:25:48.373Z,1.70
2017-12-16T21:28:16.999Z,1.60
2017-12-16T21:30:45.524Z,1.60
2017-12-16T21:33:13.908Z,1.50
2017-12-16T21:35:42.459Z,1.50
2017-12-16T21:38:11.605Z,1.40
2017-12-16T21:40:39.988Z,1.40
2017-12-16T21:43:08.713Z,1.40
2017-12-16T21:45:37.099Z,1.40
2017-12-16T21:48:06.293Z,1.30
2017-12-16T21:50:36.007Z,1.30
2017-12-16T21:53:05.164Z,1.30
2017-12-16T21:55:33.597Z,1.30
2017-12-16T21:58:02.238Z,1.40
2017-12-16T22:00:30.654Z,1.50
2017-12-16T22:02:59.833Z,1.70
2017-12-16T22:05:28.332Z,1.70
2017-12-16T22:07:56.769Z,1.70
2017-12-16T22:10:25.149Z,1.70
2017-12-16T22:12:54.012Z,1.80
2017-12-16T22:15:22.436Z,1.80
2017-12-16T22:17:50.810Z,1.80
2017-12-16T22:20:19.251Z,1.90
2017-12-16T22:22:47.682Z,1.90
2017-12-16T22:25:17.176Z,2.00
2017-12-16T22:27:45.702Z,2.00
2017-12-16T22:30:14.105Z,2.00
2017-12-16T22:32:42.517Z,2.00
2017-12-16T22:35:10.947Z,1.90
2017-12-16T22:37:39.346Z,1.90
2017-12-16T22:40:07.795Z,1.90
2017-12-16T22:42:36.440Z,2.00
2017-12-16T22:45:05.104Z,1.90
2017-12-16T22:47:33.572Z,1.80
2017-12-16T22:50:03.338Z,1.80
2017-12-16T22:52:31.697Z,1.70
2017-12-16T22:55:00.150Z,1.60
2017-12-16T22:57:28.698Z,1.60
2017-12-16T22:59:57.085Z,1.60
2017-12-16T23:02:25.562Z,1.70
2017-12-16T23:04:54.026Z,1.80
2017-12-16T23:07:22.458Z,1.80
2017-12-16T23:09:51.180Z,1.80
2017-12-16T23:12:20.608Z,1.80
2017-12-16T23:14:49.082Z,1.80
2017-12-16T23:17:17.540Z,1.80
2017-12-16T23:19:46.928Z,1.70
2017-12-16T23:22:15.399Z,1.60
2017-12-16T23:24:43.850Z,1.60
2017-12-16T23:27:12.869Z,1.70
2017-12-16T23:29:41.306Z,1.60
2017-12-16T23:32:09.742Z,1.60
2017-12-16T23:34:38.579Z,1.60
2017-12-16T23:37:06.996Z,1.60
2017-12-16T23:39:35.429Z,1.60
2017-12-16T23:42:04.097Z,1.60
2017-12-16T23:44:33.323Z,1.60
2017-12-16T23:47:01.970Z,1.60
2017-12-16T23:49:30.760Z,1.70
2017-12-16T23:51:59.959Z,1.70
2017-12-16T23:54:29.180Z,1.70
2017-12-16T23:56:57.932Z,1.70
2017-12-16T23:59:26.406Z,1.70
